Time;durP1;ratioP1;P1;durP2;ratioP2;P2;SDS_P1;SDS_P2;PMS_P1;PMS_P2;Temp;Humidity;BMP_temperature;BMP_pressure;BME280_temperature;BME280_humidity;BME280_pressure;Samples;Min_cycle;Max_cycle;Signal;HPM_P1;HPM_P2
2022/03/31 00:01:29;;;;;;;9.98;6.03;;;27.20;91.00;;;;;;1872850;75;21096;-84
2022/03/31 00:04:00;;;;;;;10.90;6.92;;;27.30;91.00;;;;;;1905860;74;21561;-83
2022/03/31 00:06:36;;;;;;;11.55;7.53;;;27.30;90.80;;;;;;1897859;73;21089;-85
2022/03/31 00:09:03;;;;;;;9.48;6.33;;;27.40;90.60;;;;;;1915467;74;21115;-85
2022/03/31 00:11:34;;;;;;;10.15;6.42;;;27.40;90.60;;;;;;1920345;75;21075;-85
2022/03/31 00:14:06;;;;;;;13.98;7.42;;;27.40;90.60;;;;;;1916961;73;21064;-83
2022/03/31 00:16:37;;;;;;;9.78;7.62;;;27.50;90.50;;;;;;1888535;75;21123;-83
2022/03/31 00:19:20;;;;;;;10.35;7.70;;;27.50;90.60;;;;;;1912564;73;21174;-84
2022/03/31 00:21:50;;;;;;;16.10;8.55;;;27.50;90.50;;;;;;1912676;73;21165;-81
2022/03/31 00:24:22;;;;;;;11.48;7.83;;;27.50;90.50;;;;;;1913748;74;21193;-82
2022/03/31 00:26:52;;;;;;;11.85;7.50;;;27.60;90.60;;;;;;1913515;74;21099;-81
2022/03/31 00:29:23;;;;;;;13.72;9.20;;;27.60;90.60;;;;;;1913350;75;21154;-81
2022/03/31 00:31:55;;;;;;;14.30;8.55;;;27.70;90.50;;;;;;1860367;75;21128;-82
2022/03/31 00:34:26;;;;;;;11.88;9.00;;;27.70;90.30;;;;;;1885220;75;21603;-81
2022/03/31 00:36:57;;;;;;;13.03;9.00;;;27.70;90.30;;;;;;1922928;73;21619;-83
2022/03/31 00:39:28;;;;;;;13.75;7.80;;;27.80;90.20;;;;;;1918440;75;21066;-80
2022/03/31 00:42:05;;;;;;;11.75;8.25;;;27.80;90.30;;;;;;1908293;73;21808;-81
2022/03/31 00:44:38;;;;;;;12.50;8.10;;;27.80;90.20;;;;;;1919574;73;21213;-81
2022/03/31 00:47:08;;;;;;;9.95;7.55;;;27.90;90.10;;;;;;1925475;73;21574;-83
2022/03/31 00:49:40;;;;;;;11.57;7.83;;;27.90;89.90;;;;;;1948418;73;21535;-82
2022/03/31 00:52:11;;;;;;;9.40;6.37;;;27.90;89.70;;;;;;1910171;73;21527;-81
2022/03/31 00:54:43;;;;;;;14.33;7.85;;;27.90;90.10;;;;;;1905892;75;21481;-81
2022/03/31 00:57:16;;;;;;;9.45;5.72;;;28.00;89.50;;;;;;1914714;74;21189;-81
2022/03/31 00:59:47;;;;;;;10.32;6.58;;;28.00;88.60;;;;;;1898989;74;21572;-82
2022/03/31 01:02:18;;;;;;;10.53;6.53;;;28.00;88.70;;;;;;1912924;73;21607;-81
2022/03/31 01:04:51;;;;;;;12.68;7.25;;;28.00;88.80;;;;;;1916175;73;21159;-82
2022/03/31 01:07:24;;;;;;;10.58;7.28;;;28.10;88.80;;;;;;1891389;75;21632;-80
2022/03/31 01:09:57;;;;;;;9.70;6.78;;;28.10;88.90;;;;;;1935950;73;21147;-82
2022/03/31 01:12:29;;;;;;;10.05;7.40;;;28.10;88.80;;;;;;1912676;73;21077;-81
2022/03/31 01:15:02;;;;;;;10.38;7.17;;;28.10;88.80;;;;;;1921244;73;21073;-82
2022/03/31 01:17:34;;;;;;;10.50;6.10;;;28.10;88.60;;;;;;1911037;75;21066;-82
2022/03/31 01:20:08;;;;;;;7.70;5.53;;;28.20;88.30;;;;;;1917639;73;21148;-81
2022/03/31 01:22:40;;;;;;;14.18;5.87;;;28.20;87.80;;;;;;1946583;73;21118;-81
2022/03/31 01:25:11;;;;;;;8.88;5.42;;;28.30;87.70;;;;;;1932354;73;21607;-82
2022/03/31 01:27:44;;;;;;;8.63;4.45;;;28.30;87.40;;;;;;1908182;74;21049;-82
2022/03/31 01:30:18;;;;;;;7.30;3.95;;;28.40;87.00;;;;;;1910066;73;21126;-82
2022/03/31 01:32:49;;;;;;;6.10;3.58;;;28.40;86.10;;;;;;1902571;73;21124;-81
2022/03/31 01:35:20;;;;;;;4.05;2.95;;;28.40;85.70;;;;;;1933442;73;22205;-81
2022/03/31 01:37:52;;;;;;;9.18;4.30;;;28.50;86.70;;;;;;1931666;73;21126;-81
2022/03/31 01:40:26;;;;;;;5.58;3.90;;;28.50;85.40;;;;;;1927565;73;21586;-81
2022/03/31 01:42:57;;;;;;;5.60;3.70;;;28.50;85.60;;;;;;1911943;73;21091;-83
2022/03/31 01:45:27;;;;;;;5.47;3.85;;;28.50;85.20;;;;;;1936981;73;21276;-81
2022/03/31 01:48:00;;;;;;;6.67;3.30;;;28.60;85.00;;;;;;1910396;73;21174;-81
2022/03/31 01:50:31;;;;;;;9.03;3.52;;;28.60;85.10;;;;;;1911817;74;21045;-82
2022/03/31 01:53:02;;;;;;;6.55;3.90;;;28.70;84.20;;;;;;1933237;74;21072;-81
2022/03/31 01:55:33;;;;;;;4.97;3.30;;;28.70;84.40;;;;;;1923971;74;21535;-83
2022/03/31 01:58:04;;;;;;;6.58;3.30;;;28.70;84.30;;;;;;1891643;75;21171;-81
2022/03/31 02:00:36;;;;;;;6.72;3.15;;;28.80;84.50;;;;;;1898661;74;21088;-81
2022/03/31 02:03:07;;;;;;;6.80;3.67;;;28.90;84.40;;;;;;1904416;74;21669;-81
2022/03/31 02:05:38;;;;;;;5.90;3.70;;;28.90;84.30;;;;;;1909728;74;21591;-82
2022/03/31 02:08:10;;;;;;;5.95;3.50;;;28.90;84.30;;;;;;1877469;74;21057;-82
2022/03/31 02:10:41;;;;;;;6.05;3.30;;;28.90;84.50;;;;;;1867449;77;21152;-81
2022/03/31 02:13:13;;;;;;;9.35;4.05;;;29.00;84.40;;;;;;1902982;74;21528;-81
2022/03/31 02:15:44;;;;;;;12.13;3.58;;;29.00;84.10;;;;;;1905535;73;21144;-82
2022/03/31 02:18:15;;;;;;;6.72;3.80;;;29.10;84.20;;;;;;1892183;74;21536;-82
2022/03/31 02:20:46;;;;;;;6.15;3.47;;;29.10;84.00;;;;;;1878533;74;21080;-83
2022/03/31 02:23:19;;;;;;;5.37;2.87;;;29.20;84.20;;;;;;1897622;74;21468;-83
2022/03/31 02:25:52;;;;;;;7.78;3.00;;;29.30;83.50;;;;;;1872581;74;21539;-83
2022/03/31 02:28:22;;;;;;;4.78;2.50;;;29.40;83.30;;;;;;1873323;74;21134;-81
2022/03/31 02:30:54;;;;;;;7.42;3.12;;;29.50;83.90;;;;;;1910921;75;21544;-80
2022/03/31 02:33:27;;;;;;;5.17;2.37;;;29.50;82.70;;;;;;1904874;74;21135;-82
2022/03/31 02:35:59;;;;;;;5.37;2.42;;;29.60;82.10;;;;;;1890075;74;21113;-81
2022/03/31 02:38:30;;;;;;;4.50;2.10;;;29.70;81.40;;;;;;1847240;76;21673;-83
2022/03/31 02:41:05;;;;;;;3.83;2.20;;;29.80;80.40;;;;;;1899119;74;21058;-83
2022/03/31 02:43:36;;;;;;;4.35;2.08;;;29.90;80.60;;;;;;1845601;77;21174;-81
2022/03/31 02:46:10;;;;;;;4.17;2.10;;;30.00;80.00;;;;;;1899010;74;21126;-84
2022/03/31 02:48:39;;;;;;;4.92;2.27;;;30.00;79.80;;;;;;1900816;74;21167;-79
2022/03/31 02:51:10;;;;;;;4.78;2.30;;;30.00;80.20;;;;;;1896608;74;21155;-82
2022/03/31 02:56:14;;;;;;;4.25;1.95;;;30.20;80.10;;;;;;1888369;74;21089;-81
2022/03/31 02:58:44;;;;;;;4.45;2.30;;;30.20;79.20;;;;;;1890049;74;21155;-82
2022/03/31 03:01:15;;;;;;;4.25;2.30;;;30.30;79.20;;;;;;1857523;75;21112;-81
2022/03/31 03:03:46;;;;;;;4.05;2.60;;;30.40;78.70;;;;;;1867259;76;21164;-82
2022/03/31 03:06:19;;;;;;;6.72;2.30;;;30.40;79.00;;;;;;1866700;75;21497;-82
2022/03/31 03:08:49;;;;;;;4.80;2.20;;;30.50;78.80;;;;;;1872901;76;21159;-81
2022/03/31 03:11:21;;;;;;;6.17;2.12;;;30.60;78.30;;;;;;1883756;75;21481;-81
2022/03/31 03:13:52;;;;;;;5.35;2.00;;;30.70;78.20;;;;;;1879077;75;21171;-81
2022/03/31 03:16:25;;;;;;;5.40;2.50;;;30.80;77.90;;;;;;1863043;76;21695;-81
2022/03/31 03:18:56;;;;;;;5.75;2.30;;;30.90;78.40;;;;;;1850419;76;21220;-81
2022/03/31 03:21:27;;;;;;;4.10;2.30;;;31.00;77.10;;;;;;1869259;75;21094;-82
2022/03/31 03:23:57;;;;;;;3.65;2.27;;;31.10;76.10;;;;;;1873735;75;21536;-83
2022/03/31 03:26:31;;;;;;;3.98;2.12;;;31.20;75.70;;;;;;1874619;75;21530;-81
2022/03/31 03:29:02;;;;;;;6.80;2.20;;;31.20;76.10;;;;;;1913619;75;21100;-83
2022/03/31 03:31:33;;;;;;;4.55;1.92;;;31.40;76.10;;;;;;1885444;75;21521;-82
2022/03/31 03:34:04;;;;;;;3.12;1.90;;;31.40;76.70;;;;;;1890961;75;21553;-83
2022/03/31 03:36:35;;;;;;;5.00;2.17;;;31.60;75.00;;;;;;1824935;78;21110;-84
2022/03/31 03:39:06;;;;;;;5.67;2.00;;;31.70;75.00;;;;;;1865956;75;21139;-83
2022/03/31 03:41:37;;;;;;;4.85;1.50;;;31.80;74.10;;;;;;1869471;75;21745;-81
2022/03/31 03:44:08;;;;;;;4.80;1.72;;;31.90;74.20;;;;;;1886370;75;21234;-82
2022/03/31 03:46:40;;;;;;;3.60;2.15;;;31.90;72.70;;;;;;1873545;76;21128;-81
2022/03/31 03:49:12;;;;;;;4.42;1.77;;;31.90;71.80;;;;;;1874631;75;21128;-82
2022/03/31 03:51:43;;;;;;;3.30;1.62;;;32.00;71.80;;;;;;1821686;77;21127;-82
2022/03/31 03:54:15;;;;;;;5.87;1.70;;;32.10;72.30;;;;;;1874176;75;21241;-81
2022/03/31 03:56:46;;;;;;;3.50;1.80;;;32.10;71.80;;;;;;1876653;75;21072;-82
2022/03/31 03:59:19;;;;;;;4.05;1.90;;;32.20;71.70;;;;;;1888577;75;21157;-82
2022/03/31 04:01:49;;;;;;;5.30;1.90;;;32.20;71.30;;;;;;1919833;73;21394;-83
2022/03/31 04:04:20;;;;;;;4.65;2.02;;;32.30;70.80;;;;;;1912907;73;21559;-83
2022/03/31 04:06:53;;;;;;;2.85;1.60;;;32.30;70.80;;;;;;1922100;73;21135;-82
2022/03/31 04:09:24;;;;;;;4.15;1.60;;;32.40;70.60;;;;;;1918203;73;21179;-83
2022/03/31 04:11:55;;;;;;;3.22;1.87;;;32.40;71.10;;;;;;1937952;73;21112;-82
2022/03/31 04:14:26;;;;;;;3.58;1.70;;;32.50;70.80;;;;;;1922981;73;21154;-84
2022/03/31 04:16:57;;;;;;;4.62;2.00;;;32.60;70.40;;;;;;1915511;73;21095;-79
2022/03/31 04:19:27;;;;;;;4.25;2.00;;;32.60;69.90;;;;;;1922153;74;21159;-83
2022/03/31 04:21:58;;;;;;;3.45;1.80;;;32.60;70.90;;;;;;1915754;73;21084;-81
2022/03/31 04:24:29;;;;;;;4.72;1.98;;;32.70;69.90;;;;;;1905667;74;21127;-82
2022/03/31 04:27:00;;;;;;;3.37;1.80;;;32.70;69.70;;;;;;1909298;74;21080;-83
2022/03/31 04:29:31;;;;;;;3.95;1.92;;;32.70;69.60;;;;;;1931032;74;21128;-83
2022/03/31 04:32:02;;;;;;;4.87;2.02;;;32.80;70.20;;;;;;1935153;74;21599;-84
2022/03/31 04:34:34;;;;;;;8.20;2.12;;;32.80;69.00;;;;;;1933203;74;21040;-82
2022/03/31 04:37:06;;;;;;;3.17;1.82;;;32.90;68.70;;;;;;1879542;75;21078;-84
2022/03/31 04:39:37;;;;;;;3.37;1.92;;;32.90;68.70;;;;;;1915030;75;21093;-82
2022/03/31 04:42:09;;;;;;;4.00;2.00;;;32.90;69.40;;;;;;1915946;75;21202;-83
2022/03/31 04:44:40;;;;;;;4.78;2.15;;;33.00;67.40;;;;;;1928196;74;21108;-84
2022/03/31 04:47:11;;;;;;;4.90;2.33;;;33.00;67.10;;;;;;1929525;74;21045;-83
2022/03/31 04:49:42;;;;;;;4.12;2.20;;;33.00;67.80;;;;;;1935304;74;21084;-83
2022/03/31 04:52:15;;;;;;;9.15;2.08;;;33.10;67.40;;;;;;1934659;74;21128;-84
2022/03/31 04:54:46;;;;;;;6.42;2.62;;;33.10;67.40;;;;;;1930265;73;21129;-83
2022/03/31 04:57:20;;;;;;;4.50;2.40;;;33.10;67.60;;;;;;1925811;73;21068;-83
2022/03/31 04:59:51;;;;;;;5.00;2.22;;;33.20;66.80;;;;;;1896413;74;21104;-82
2022/03/31 05:02:22;;;;;;;8.03;3.05;;;33.30;67.60;;;;;;1917678;73;21632;-83
2022/03/31 05:04:53;;;;;;;4.85;2.90;;;33.40;67.20;;;;;;1928087;73;21131;-83
2022/03/31 05:07:24;;;;;;;3.65;1.77;;;33.50;67.00;;;;;;1898571;73;21171;-82
2022/03/31 05:09:55;;;;;;;5.37;2.50;;;33.60;67.40;;;;;;1914782;73;21070;-82
2022/03/31 05:12:26;;;;;;;5.17;2.52;;;33.60;66.50;;;;;;1846117;76;21128;-82
2022/03/31 05:14:57;;;;;;;5.60;2.05;;;33.60;65.60;;;;;;1864170;75;21128;-83
2022/03/31 05:17:35;;;;;;;3.67;2.17;;;33.60;65.50;;;;;;1855755;77;21152;-82
2022/03/31 05:20:09;;;;;;;5.10;2.55;;;33.60;65.70;;;;;;1867838;75;21132;-83
2022/03/31 05:22:41;;;;;;;3.47;2.00;;;33.60;65.90;;;;;;1862417;75;21108;-82
2022/03/31 05:25:12;;;;;;;4.58;2.25;;;33.70;65.30;;;;;;1872341;75;21168;-84
2022/03/31 05:27:46;;;;;;;5.53;1.90;;;33.70;65.50;;;;;;1911525;73;21187;-83
2022/03/31 05:30:19;;;;;;;3.70;2.00;;;33.80;66.00;;;;;;1921502;73;21069;-83
2022/03/31 05:32:53;;;;;;;5.40;2.17;;;33.80;65.30;;;;;;1913571;74;21154;-83
2022/03/31 05:35:26;;;;;;;5.92;2.40;;;33.80;66.30;;;;;;1920598;73;21628;-82
2022/03/31 05:37:58;;;;;;;3.80;1.55;;;33.80;65.10;;;;;;1917526;74;21206;-84
2022/03/31 05:40:29;;;;;;;6.70;2.17;;;33.90;64.50;;;;;;1876492;75;21112;-82
2022/03/31 05:42:59;;;;;;;2.58;1.52;;;;;;;;;;1842609;76;21119;-82
2022/03/31 05:45:30;;;;;;;3.67;1.77;;;34.00;62.70;;;;;;1917166;74;21142;-83
2022/03/31 05:48:02;;;;;;;3.42;1.95;;;34.10;63.80;;;;;;1913933;74;21065;-83
2022/03/31 05:50:34;;;;;;;3.42;1.55;;;34.10;64.20;;;;;;1907691;73;21579;-82
2022/03/31 05:53:05;;;;;;;5.78;1.82;;;34.10;62.60;;;;;;1922766;73;21524;-82
2022/03/31 05:55:36;;;;;;;4.37;1.72;;;34.00;63.50;;;;;;1912295;73;21159;-82
2022/03/31 05:58:08;;;;;;;3.65;1.80;;;34.00;64.00;;;;;;1873690;76;21167;-81
2022/03/31 06:00:40;;;;;;;3.65;2.33;;;33.90;63.80;;;;;;1912428;74;21496;-81
2022/03/31 06:03:11;;;;;;;4.20;1.70;;;33.90;62.90;;;;;;1871258;76;21166;-81
2022/03/31 06:05:42;;;;;;;5.72;1.82;;;33.90;63.00;;;;;;1918151;74;21140;-82
2022/03/31 06:08:13;;;;;;;4.78;1.70;;;33.90;63.20;;;;;;1905549;74;21090;-82
2022/03/31 06:10:46;;;;;;;3.60;1.55;;;34.00;63.10;;;;;;1912558;74;21520;-83
2022/03/31 06:13:17;;;;;;;4.42;2.95;;;34.00;63.20;;;;;;1873360;75;21082;-84
2022/03/31 06:15:48;;;;;;;4.30;1.90;;;34.10;63.40;;;;;;1861218;75;21127;-83
2022/03/31 06:18:24;;;;;;;3.12;1.52;;;34.10;63.30;;;;;;1912734;74;21130;-82
2022/03/31 06:20:55;;;;;;;2.77;1.80;;;34.10;62.50;;;;;;1869435;75;21135;-83
2022/03/31 06:23:26;;;;;;;4.30;1.60;;;34.10;62.40;;;;;;1911254;74;21125;-82
2022/03/31 06:25:57;;;;;;;4.58;1.60;;;34.10;62.30;;;;;;1913850;74;21544;-83
2022/03/31 06:28:30;;;;;;;4.78;1.87;;;34.20;62.00;;;;;;1916352;74;21135;-83
2022/03/31 06:31:01;;;;;;;5.92;1.77;;;34.10;61.60;;;;;;1872549;76;21583;-84
2022/03/31 06:33:31;;;;;;;4.17;1.72;;;34.20;61.10;;;;;;1871756;76;21182;-84
2022/03/31 06:36:02;;;;;;;3.27;1.92;;;34.20;61.30;;;;;;1908389;73;21159;-83
2022/03/31 06:38:34;;;;;;;3.20;1.67;;;34.20;60.40;;;;;;1921228;74;21126;-83
2022/03/31 06:41:10;;;;;;;4.00;1.80;;;34.20;60.80;;;;;;1919636;74;21201;-82
2022/03/31 06:43:39;;;;;;;3.17;1.45;;;34.20;61.40;;;;;;1873200;75;21119;-83
2022/03/31 06:46:11;;;;;;;3.20;1.67;;;34.30;62.00;;;;;;1912209;74;21053;-83
2022/03/31 06:48:46;;;;;;;2.15;1.30;;;34.20;61.70;;;;;;1864841;76;21549;-82
2022/03/31 06:51:18;;;;;;;2.47;1.40;;;34.20;61.20;;;;;;1827229;77;21101;-83
2022/03/31 06:53:49;;;;;;;4.40;1.65;;;34.20;59.30;;;;;;1911814;74;21077;-82
2022/03/31 06:56:23;;;;;;;4.60;1.60;;;34.20;60.00;;;;;;1871068;76;21152;-82
2022/03/31 06:58:55;;;;;;;3.75;1.70;;;34.20;60.00;;;;;;1911032;74;21137;-84
2022/03/31 07:01:30;;;;;;;5.45;1.92;;;34.10;59.80;;;;;;1873040;76;21247;-82
2022/03/31 07:04:01;;;;;;;2.40;1.40;;;34.10;60.40;;;;;;1882366;75;21056;-84
2022/03/31 07:06:32;;;;;;;3.25;1.60;;;34.00;60.50;;;;;;1893101;76;21188;-82
2022/03/31 07:09:04;;;;;;;2.52;1.60;;;34.00;60.90;;;;;;1881070;76;21539;-83
2022/03/31 07:11:35;;;;;;;5.10;1.60;;;33.90;59.90;;;;;;1877031;76;21373;-81
2022/03/31 07:14:08;;;;;;;2.77;1.82;;;33.80;61.00;;;;;;1866772;77;21115;-82
2022/03/31 07:16:39;;;;;;;4.08;2.00;;;33.90;61.20;;;;;;1831445;77;21072;-81
2022/03/31 07:19:10;;;;;;;3.27;1.55;;;33.80;61.40;;;;;;1816656;78;21112;-81
2022/03/31 07:21:48;;;;;;;2.50;1.80;;;33.80;61.60;;;;;;1834117;77;21162;-83
2022/03/31 07:24:14;;;;;;;2.25;1.60;;;33.70;61.20;;;;;;1860758;77;21116;-81
2022/03/31 07:26:45;;;;;;;4.20;1.98;;;33.70;62.20;;;;;;1881138;76;21107;-81
2022/03/31 07:29:16;;;;;;;3.50;1.70;;;33.70;61.90;;;;;;1883318;76;21559;-82
2022/03/31 07:31:47;;;;;;;3.17;1.80;;;33.70;62.20;;;;;;1875680;76;21096;-82
2022/03/31 07:34:18;;;;;;;3.20;1.72;;;33.70;62.40;;;;;;1851860;76;21567;-82
2022/03/31 07:36:49;;;;;;;2.87;1.72;;;33.80;61.90;;;;;;1837919;78;21182;-81
2022/03/31 07:39:20;;;;;;;3.72;1.92;;;33.70;62.00;;;;;;1838774;77;21519;-83
2022/03/31 07:41:51;;;;;;;4.33;1.95;;;33.70;62.20;;;;;;1838500;77;21095;-83
2022/03/31 07:44:22;;;;;;;3.83;1.95;;;33.70;61.80;;;;;;1829641;78;21135;-81
2022/03/31 07:46:54;;;;;;;4.00;1.82;;;33.70;62.20;;;;;;1830102;78;21241;-82
2022/03/31 07:49:25;;;;;;;3.40;2.22;;;33.70;61.40;;;;;;1829484;78;21076;-82
2022/03/31 07:51:57;;;;;;;4.85;2.22;;;33.60;60.60;;;;;;1829308;78;21107;-83
2022/03/31 07:54:28;;;;;;;3.40;2.20;;;33.60;60.90;;;;;;1855003;75;21158;-81
2022/03/31 07:56:59;;;;;;;4.15;2.20;;;33.60;61.20;;;;;;1869072;75;21594;-81
2022/03/31 07:59:33;;;;;;;5.37;2.12;;;33.60;61.10;;;;;;1869258;76;21172;-81
2022/03/31 08:02:03;;;;;;;3.27;1.80;;;33.60;60.40;;;;;;1867746;76;21590;-82
2022/03/31 08:04:34;;;;;;;3.95;2.20;;;33.60;60.20;;;;;;1859988;77;21078;-81
2022/03/31 08:07:06;;;;;;;3.62;2.27;;;33.60;60.40;;;;;;1905869;75;21511;-83
2022/03/31 08:09:36;;;;;;;4.08;1.98;;;33.60;60.60;;;;;;1905095;75;21134;-81
2022/03/31 08:12:10;;;;;;;2.72;2.20;;;33.60;60.60;;;;;;1903927;75;21122;-82
2022/03/31 08:14:42;;;;;;;5.83;2.45;;;33.50;61.00;;;;;;1904011;75;21126;-83
2022/03/31 08:17:13;;;;;;;3.20;2.50;;;33.50;61.20;;;;;;1892922;74;21124;-81
2022/03/31 08:19:44;;;;;;;5.03;2.20;;;33.50;60.30;;;;;;1882447;76;21484;-82
2022/03/31 08:22:17;;;;;;;3.15;2.20;;;33.50;60.70;;;;;;1883572;76;21516;-82
2022/03/31 08:24:47;;;;;;;5.22;2.72;;;33.60;60.80;;;;;;1883480;76;21092;-82
2022/03/31 08:27:18;;;;;;;3.95;2.58;;;33.60;61.10;;;;;;1883722;76;21184;-81
2022/03/31 08:29:49;;;;;;;5.10;2.60;;;33.60;60.70;;;;;;1883807;75;21161;-82
2022/03/31 08:32:20;;;;;;;5.55;2.60;;;33.60;61.00;;;;;;1889622;75;21206;-83
2022/03/31 08:34:51;;;;;;;5.83;2.40;;;33.70;61.20;;;;;;1899162;75;22212;-81
2022/03/31 08:37:23;;;;;;;4.83;2.42;;;33.70;60.60;;;;;;1909769;75;21113;-83
2022/03/31 08:39:54;;;;;;;3.65;2.37;;;33.70;61.00;;;;;;1896456;75;21209;-81
2022/03/31 08:42:26;;;;;;;3.42;2.42;;;33.70;60.80;;;;;;1910043;75;21142;-83
2022/03/31 08:44:59;;;;;;;5.45;2.58;;;33.70;61.00;;;;;;1897732;75;21221;-84
2022/03/31 08:47:31;;;;;;;7.10;3.15;;;33.60;60.90;;;;;;1896180;75;21538;-83
2022/03/31 08:50:03;;;;;;;5.55;2.80;;;33.60;61.20;;;;;;1893982;74;21150;-84
2022/03/31 08:52:34;;;;;;;4.42;2.92;;;33.60;60.90;;;;;;1870159;76;21099;-84
2022/03/31 08:55:07;;;;;;;5.97;3.02;;;33.60;61.20;;;;;;1887397;75;21523;-85
2022/03/31 08:57:43;;;;;;;4.55;2.85;;;33.50;61.20;;;;;;1884177;76;21068;-84
2022/03/31 09:00:17;;;;;;;5.95;2.67;;;33.60;61.60;;;;;;1883982;76;21087;-84
2022/03/31 09:02:50;;;;;;;5.37;2.60;;;33.50;61.90;;;;;;1883536;76;21653;-84
2022/03/31 09:05:21;;;;;;;6.03;2.55;;;33.50;61.70;;;;;;1880634;75;21118;-84
2022/03/31 09:07:54;;;;;;;6.62;3.08;;;33.50;61.70;;;;;;1882807;76;22350;-83
2022/03/31 09:10:27;;;;;;;6.20;3.27;;;33.50;61.30;;;;;;1882554;76;21625;-83
2022/03/31 09:13:00;;;;;;;5.85;3.33;;;33.50;61.70;;;;;;1883610;76;21067;-83
2022/03/31 09:15:34;;;;;;;4.55;3.25;;;33.50;61.30;;;;;;1883268;74;21111;-82
2022/03/31 09:18:05;;;;;;;4.40;3.05;;;33.50;61.40;;;;;;1884120;76;21079;-84
2022/03/31 09:20:39;;;;;;;5.22;3.40;;;33.40;61.90;;;;;;1884282;76;21518;-83
2022/03/31 09:23:12;;;;;;;5.45;3.42;;;33.40;62.10;;;;;;1884470;76;21134;-83
2022/03/31 09:25:45;;;;;;;5.78;3.60;;;33.40;62.10;;;;;;1884763;76;21118;-84
2022/03/31 09:28:21;;;;;;;5.37;3.33;;;33.40;62.00;;;;;;1884900;76;21075;-84
2022/03/31 09:30:51;;;;;;;6.35;3.02;;;33.30;62.00;;;;;;1884408;76;21095;-83
2022/03/31 09:33:25;;;;;;;5.87;3.35;;;33.30;62.30;;;;;;1885117;76;21212;-82
2022/03/31 09:35:59;;;;;;;4.58;3.33;;;33.30;61.80;;;;;;1881773;75;21087;-83
2022/03/31 09:38:32;;;;;;;5.08;3.45;;;33.20;61.90;;;;;;1898699;73;21118;-83
2022/03/31 09:41:04;;;;;;;6.53;3.37;;;33.30;61.90;;;;;;1904374;74;21163;-83
2022/03/31 09:43:40;;;;;;;6.00;3.85;;;33.20;62.00;;;;;;1926513;73;21119;-83
2022/03/31 09:46:13;;;;;;;7.60;3.98;;;33.30;62.00;;;;;;1904635;75;21185;-83
2022/03/31 09:48:45;;;;;;;6.62;4.03;;;33.20;61.70;;;;;;1875679;74;21133;-82
2022/03/31 09:51:17;;;;;;;5.12;4.08;;;33.20;62.10;;;;;;1906059;75;21057;-83
2022/03/31 09:53:50;;;;;;;5.70;3.77;;;33.20;62.50;;;;;;1906498;75;21061;-82
2022/03/31 09:56:27;;;;;;;5.80;3.83;;;33.10;62.30;;;;;;1907457;75;21147;-81
2022/03/31 09:58:58;;;;;;;5.95;3.47;;;33.10;62.60;;;;;;1905569;74;21681;-84
2022/03/31 10:01:30;;;;;;;6.62;3.72;;;33.00;62.70;;;;;;1900408;74;21693;-81
2022/03/31 10:04:02;;;;;;;7.00;3.58;;;33.00;63.10;;;;;;1894699;74;21139;-81
2022/03/31 10:06:35;;;;;;;6.10;3.92;;;32.90;63.40;;;;;;1878490;75;21118;-84
2022/03/31 10:09:08;;;;;;;5.17;3.70;;;32.90;63.70;;;;;;1873383;76;21084;-84
2022/03/31 10:11:42;;;;;;;9.43;4.47;;;32.80;64.10;;;;;;1885096;75;21125;-85
2022/03/31 10:14:15;;;;;;;4.92;3.30;;;32.80;64.80;;;;;;1884833;75;21142;-84
2022/03/31 10:16:52;;;;;;;6.40;3.55;;;32.80;63.20;;;;;;1875197;75;21123;-82
2022/03/31 10:19:30;;;;;;;8.90;3.83;;;32.80;63.20;;;;;;1876684;76;21158;-84
2022/03/31 10:22:00;;;;;;;7.92;3.75;;;32.80;63.20;;;;;;1877432;76;21061;-83
2022/03/31 10:24:41;;;;;;;7.65;3.72;;;32.80;63.40;;;;;;1872353;74;21125;-84
2022/03/31 10:27:04;;;;;;;4.53;3.72;;;32.80;63.40;;;;;;1879827;75;21095;-83
2022/03/31 10:29:37;;;;;;;6.17;4.60;;;32.80;63.30;;;;;;1885950;75;21076;-83
2022/03/31 10:32:11;;;;;;;6.55;3.40;;;32.80;63.40;;;;;;1880965;76;21135;-83
2022/03/31 10:34:44;;;;;;;6.28;3.77;;;32.80;63.10;;;;;;1884446;76;21185;-84
2022/03/31 10:37:14;;;;;;;7.65;3.83;;;32.80;63.30;;;;;;1878829;75;21132;-83
2022/03/31 10:39:47;;;;;;;5.60;3.22;;;32.80;63.30;;;;;;1850987;77;21132;-84
2022/03/31 10:42:18;;;;;;;5.62;3.83;;;32.70;63.20;;;;;;1856257;77;21130;-84
2022/03/31 10:44:49;;;;;;;5.62;3.20;;;32.70;63.40;;;;;;1852138;77;21159;-83
2022/03/31 10:47:19;;;;;;;6.58;3.50;;;32.70;63.40;;;;;;1861692;75;21214;-83
2022/03/31 10:49:54;;;;;;;5.87;3.77;;;32.70;63.80;;;;;;1856922;76;21089;-84
2022/03/31 10:52:27;;;;;;;8.15;3.95;;;32.60;64.10;;;;;;1864412;75;21139;-85
2022/03/31 10:55:00;;;;;;;8.38;4.60;;;32.70;64.30;;;;;;1869616;76;21059;-83
2022/03/31 10:57:33;;;;;;;11.08;4.87;;;32.60;65.40;;;;;;1854836;75;21219;-83
2022/03/31 11:00:07;;;;;;;8.68;5.90;;;32.60;64.80;;;;;;1851727;76;21158;-85
2022/03/31 11:02:40;;;;;;;10.45;5.50;;;32.60;65.10;;;;;;1849601;76;21600;-81
2022/03/31 11:05:13;;;;;;;8.55;5.47;;;32.50;65.10;;;;;;1857817;75;21100;-83
2022/03/31 11:07:44;;;;;;;7.30;4.67;;;32.50;65.30;;;;;;1894575;75;21251;-83
2022/03/31 11:10:15;;;;;;;9.23;5.17;;;32.50;65.60;;;;;;1896942;75;21147;-85
2022/03/31 11:12:47;;;;;;;7.42;4.95;;;32.50;65.60;;;;;;1897024;75;21124;-83
2022/03/31 11:15:18;;;;;;;9.65;4.95;;;32.40;65.70;;;;;;1894570;75;21580;-83
2022/03/31 11:17:49;;;;;;;8.50;5.80;;;32.40;65.90;;;;;;1896911;75;21060;-84
2022/03/31 11:20:23;;;;;;;8.75;5.28;;;32.40;66.10;;;;;;1855587;76;21152;-83
2022/03/31 11:22:56;;;;;;;9.33;5.05;;;32.40;66.60;;;;;;1896961;75;21281;-83
2022/03/31 11:25:29;;;;;;;10.40;5.22;;;32.40;66.40;;;;;;1892786;75;21197;-82
2022/03/31 11:28:02;;;;;;;8.33;5.00;;;32.40;66.60;;;;;;1860973;76;21233;-84
2022/03/31 11:30:33;;;;;;;8.75;5.00;;;32.30;66.60;;;;;;1891244;75;21657;-82
2022/03/31 11:33:04;;;;;;;10.72;4.67;;;32.30;66.90;;;;;;1888498;75;21116;-82
2022/03/31 11:35:36;;;;;;;9.88;4.97;;;32.30;67.10;;;;;;1894626;74;21265;-82
2022/03/31 11:38:09;;;;;;;6.75;4.53;;;32.30;67.30;;;;;;1896953;75;21189;-82
2022/03/31 11:40:43;;;;;;;9.23;5.37;;;32.20;67.30;;;;;;1894526;75;21077;-81
2022/03/31 11:43:19;;;;;;;8.03;5.47;;;32.20;67.30;;;;;;1896626;75;21261;-83
2022/03/31 11:45:51;;;;;;;10.98;6.03;;;32.20;67.50;;;;;;1897025;75;21084;-82
2022/03/31 11:48:25;;;;;;;14.75;6.67;;;32.10;67.50;;;;;;1890868;75;21682;-83
2022/03/31 11:50:59;;;;;;;11.33;6.90;;;32.10;67.40;;;;;;1893709;75;21265;-82
2022/03/31 11:53:34;;;;;;;15.30;9.38;;;32.10;67.30;;;;;;1896710;75;21164;-83
2022/03/31 11:56:06;;;;;;;14.75;8.78;;;32.10;67.30;;;;;;1898503;75;21108;-81
2022/03/31 11:58:39;;;;;;;16.77;9.20;;;32.10;67.30;;;;;;1901893;75;21101;-80
2022/03/31 12:01:11;;;;;;;16.65;9.03;;;32.10;67.20;;;;;;1873106;76;21093;-81
2022/03/31 12:03:45;;;;;;;15.48;9.68;;;32.00;67.20;;;;;;1901970;75;21148;-81
2022/03/31 12:06:17;;;;;;;17.85;9.85;;;32.00;67.20;;;;;;1899631;75;21190;-85
2022/03/31 12:08:48;;;;;;;18.02;10.53;;;32.00;67.00;;;;;;1899584;75;21076;-83
2022/03/31 12:11:20;;;;;;;17.92;10.38;;;32.00;67.10;;;;;;1899625;75;21544;-82
2022/03/31 12:13:54;;;;;;;19.05;10.10;;;31.90;66.90;;;;;;1893877;74;21205;-84
2022/03/31 12:16:25;;;;;;;21.62;10.65;;;31.90;67.10;;;;;;1895393;75;21127;-85
2022/03/31 12:18:59;;;;;;;13.88;9.10;;;31.90;67.10;;;;;;1892716;74;21210;-84
2022/03/31 12:21:31;;;;;;;20.08;12.43;;;31.90;67.20;;;;;;1890799;75;21630;-83
2022/03/31 12:24:09;;;;;;;16.57;9.85;;;31.80;67.30;;;;;;1893416;75;21253;-83
2022/03/31 12:26:38;;;;;;;13.03;8.20;;;31.80;67.30;;;;;;1899969;74;21235;-84
2022/03/31 12:29:11;;;;;;;11.80;7.95;;;31.80;67.40;;;;;;1896435;75;21092;-85
2022/03/31 12:31:43;;;;;;;13.32;7.87;;;31.80;67.40;;;;;;1892079;75;21212;-83
2022/03/31 12:34:14;;;;;;;16.45;8.48;;;31.80;67.60;;;;;;1899419;75;21084;-84
2022/03/31 12:36:46;;;;;;;14.25;8.68;;;31.70;67.50;;;;;;1892531;75;21076;-85
2022/03/31 12:39:17;;;;;;;12.47;8.40;;;31.70;67.60;;;;;;1898946;75;21224;-83
2022/03/31 12:41:50;;;;;;;12.85;8.10;;;31.70;67.80;;;;;;1889219;75;21201;-84
2022/03/31 12:44:25;;;;;;;14.90;8.05;;;31.70;67.90;;;;;;1895273;74;21081;-85
2022/03/31 12:47:01;;;;;;;12.95;8.13;;;31.60;67.90;;;;;;1818428;78;21142;-84
2022/03/31 12:49:33;;;;;;;12.68;8.05;;;31.60;68.00;;;;;;1841340;78;21212;-83
2022/03/31 12:52:06;;;;;;;13.50;8.08;;;31.60;68.00;;;;;;1896861;75;21270;-82
2022/03/31 12:54:42;;;;;;;17.07;8.43;;;31.50;67.90;;;;;;1896052;75;21586;-82
2022/03/31 12:57:14;;;;;;;12.73;7.72;;;31.50;68.10;;;;;;1899050;75;21084;-83
2022/03/31 12:59:54;;;;;;;14.13;8.18;;;31.50;68.20;;;;;;1881048;75;21061;-82
2022/03/31 13:02:25;;;;;;;14.58;7.50;;;31.50;68.30;;;;;;1902239;74;21202;-82
2022/03/31 13:05:02;;;;;;;12.70;7.28;;;31.50;68.30;;;;;;1902257;75;21135;-84
2022/03/31 13:07:33;;;;;;;12.58;7.50;;;31.40;68.40;;;;;;1902406;75;21568;-84
2022/03/31 13:10:05;;;;;;;14.23;7.62;;;31.50;68.70;;;;;;1903163;75;21146;-85
2022/03/31 13:12:39;;;;;;;16.02;7.47;;;31.40;68.70;;;;;;1897562;75;21128;-84